sensor_id;sensor_type;location;lat;lon;timestamp;pressure;altitude;pressure_sealevel;temperature;humidity
65131;BME280;51709;54.912;8.316;2023-04-23T18:38:42;100227.97;;;13.78;55.09
65131;BME280;51709;54.912;8.316;2023-04-23T18:44:07;100237.03;;;14.06;55.46
65131;BME280;51709;54.912;8.316;2023-04-23T18:49:54;100234.28;;;14.11;55.89
65131;BME280;51709;54.912;8.316;2023-04-23T18:55:16;100241.84;;;14.14;56.24
65131;BME280;51709;54.912;8.316;2023-04-23T19:00:36;100237.97;;;14.05;56.81
65131;BME280;51709;54.912;8.316;2023-04-23T19:05:58;100230.56;;;13.97;57.14
65131;BME280;51709;54.912;8.316;2023-04-23T19:11:18;100228.53;;;13.85;57.58
65131;BME280;51709;54.912;8.316;2023-04-23T19:16:39;100234.66;;;13.63;58.35
65131;BME280;51709;54.912;8.316;2023-04-23T19:21:59;100238.44;;;13.54;58.62
65131;BME280;51709;54.912;8.316;2023-04-23T19:27:22;100226.66;;;13.49;58.88
65131;BME280;51709;54.912;8.316;2023-04-23T19:32:43;100219.34;;;13.38;59.05
65131;BME280;51709;54.912;8.316;2023-04-23T19:38:03;100204.16;;;13.32;59.26
65131;BME280;51709;54.912;8.316;2023-04-23T19:43:24;100201.78;;;13.27;59.37
65131;BME280;51709;54.912;8.316;2023-04-23T19:48:45;100188.16;;;13.23;59.58
65131;BME280;51709;54.912;8.316;2023-04-23T19:54:05;100191.81;;;13.19;59.62
65131;BME280;51709;54.912;8.316;2023-04-23T19:59:26;100176.53;;;13.15;59.89
65131;BME280;51709;54.912;8.316;2023-04-23T20:04:46;100171.59;;;13.10;59.99
65131;BME280;51709;54.912;8.316;2023-04-23T20:10:08;100169.63;;;13.15;59.93
65131;BME280;51709;54.912;8.316;2023-04-23T20:15:29;100165.69;;;13.06;60.15
65131;BME280;51709;54.912;8.316;2023-04-23T20:20:50;100165.13;;;13.00;60.45
65131;BME280;51709;54.912;8.316;2023-04-23T20:26:12;100159.91;;;13.01;60.57
65131;BME280;51709;54.912;8.316;2023-04-23T20:31:33;100151.91;;;13.07;60.76
65131;BME280;51709;54.912;8.316;2023-04-23T20:36:56;100145.53;;;13.16;60.34
65131;BME280;51709;54.912;8.316;2023-04-23T20:42:19;100143.47;;;13.24;60.34
65131;BME280;51709;54.912;8.316;2023-04-23T20:47:40;100140.31;;;13.18;60.52
65131;BME280;51709;54.912;8.316;2023-04-23T20:53:01;100133.41;;;13.39;60.22
65131;BME280;51709;54.912;8.316;2023-04-23T20:58:22;100123.09;;;13.39;60.40
65131;BME280;51709;54.912;8.316;2023-04-23T21:03:43;100114.22;;;13.46;60.31
65131;BME280;51709;54.912;8.316;2023-04-23T21:09:04;100105.75;;;13.43;60.72
65131;BME280;51709;54.912;8.316;2023-04-23T21:14:25;100101.59;;;13.40;60.68
65131;BME280;51709;54.912;8.316;2023-04-23T21:19:46;100090.38;;;13.41;60.82
65131;BME280;51709;54.912;8.316;2023-04-23T21:25:06;100099.03;;;13.40;61.03
65131;BME280;51709;54.912;8.316;2023-04-23T21:30:45;100093.59;;;13.25;61.46
65131;BME280;51709;54.912;8.316;2023-04-23T21:36:07;100093.41;;;13.30;61.22
65131;BME280;51709;54.912;8.316;2023-04-23T21:41:27;100090.63;;;13.35;61.16
65131;BME280;51709;54.912;8.316;2023-04-23T21:46:48;100078.66;;;13.34;61.03
65131;BME280;51709;54.912;8.316;2023-04-23T21:52:08;100072.72;;;13.32;61.08
65131;BME280;51709;54.912;8.316;2023-04-23T21:57:29;100065.34;;;13.24;61.41
65131;BME280;51709;54.912;8.316;2023-04-23T22:02:50;100063.59;;;13.24;61.51
65131;BME280;51709;54.912;8.316;2023-04-23T22:08:15;100061.44;;;13.15;61.75
65131;BME280;51709;54.912;8.316;2023-04-23T22:13:36;100045.34;;;13.10;61.92
65131;BME280;51709;54.912;8.316;2023-04-23T22:18:57;100039.34;;;13.09;61.78
65131;BME280;51709;54.912;8.316;2023-04-23T22:24:18;100019.84;;;13.04;62.08
65131;BME280;51709;54.912;8.316;2023-04-23T22:29:38;100000.84;;;13.06;62.12
65131;BME280;51709;54.912;8.316;2023-04-23T22:34:59;99998.91;;;13.12;61.99
65131;BME280;51709;54.912;8.316;2023-04-23T22:40:19;99997.22;;;13.10;62.13
65131;BME280;51709;54.912;8.316;2023-04-23T22:45:40;99994.88;;;13.06;62.26
65131;BME280;51709;54.912;8.316;2023-04-23T22:51:01;99987.81;;;12.90;62.69
65131;BME280;51709;54.912;8.316;2023-04-23T22:56:24;99989.81;;;12.84;62.85
65131;BME280;51709;54.912;8.316;2023-04-23T23:01:45;99978.22;;;12.75;62.77
65131;BME280;51709;54.912;8.316;2023-04-23T23:07:07;99978.03;;;12.59;63.07
65131;BME280;51709;54.912;8.316;2023-04-23T23:12:29;99970.09;;;12.44;63.36
65131;BME280;51709;54.912;8.316;2023-04-23T23:17:50;99969.19;;;12.45;63.35
65131;BME280;51709;54.912;8.316;2023-04-23T23:23:11;99951.22;;;12.44;63.18
65131;BME280;51709;54.912;8.316;2023-04-23T23:28:32;99949.53;;;12.43;63.34
65131;BME280;51709;54.912;8.316;2023-04-23T23:33:52;99938.34;;;12.44;63.35
65131;BME280;51709;54.912;8.316;2023-04-23T23:39:13;99936.63;;;12.44;63.13
65131;BME280;51709;54.912;8.316;2023-04-23T23:44:38;99922.91;;;12.44;63.32
65131;BME280;51709;54.912;8.316;2023-04-23T23:49:58;99918.81;;;12.40;63.72
65131;BME280;51709;54.912;8.316;2023-04-23T23:55:19;99906.28;;;12.32;64.18
